createdAt,value
2022-10-05T00:00:52.730Z,4.00
2022-10-05T00:03:22.594Z,3.33
2022-10-05T00:05:49.944Z,3.97
2022-10-05T00:08:24.140Z,3.80
2022-10-05T00:10:52.111Z,3.55
2022-10-05T00:13:26.841Z,3.63
2022-10-05T00:16:14.686Z,3.67
2022-10-05T00:18:47.540Z,3.85
2022-10-05T00:21:27.314Z,3.88
2022-10-05T00:23:58.115Z,3.30
2022-10-05T00:26:27.828Z,3.70
2022-10-05T00:28:56.207Z,3.50
2022-10-05T00:31:29.396Z,3.67
2022-10-05T00:33:58.083Z,3.70
2022-10-05T00:36:26.299Z,3.42
2022-10-05T00:38:57.512Z,3.50
2022-10-05T00:41:30.383Z,3.10
2022-10-05T00:44:25.614Z,3.20
2022-10-05T00:47:20.074Z,3.25
2022-10-05T00:50:25.412Z,3.60
2022-10-05T00:53:20.415Z,3.60
2022-10-05T00:56:07.461Z,3.58
2022-10-05T00:58:57.375Z,3.13
2022-10-05T01:01:40.942Z,3.33
2022-10-05T01:04:44.052Z,3.28
2022-10-05T01:07:49.253Z,3.15
2022-10-05T01:10:35.321Z,3.35
2022-10-05T01:13:27.893Z,3.13
2022-10-05T01:16:04.349Z,3.08
2022-10-05T01:18:48.973Z,3.08
2022-10-05T01:21:28.313Z,3.55
2022-10-05T01:24:09.337Z,3.10
2022-10-05T01:26:43.575Z,3.38
2022-10-05T01:29:20.318Z,3.35
2022-10-05T01:31:50.630Z,3.25
2022-10-05T01:34:45.584Z,3.30
2022-10-05T01:37:33.646Z,3.53
2022-10-05T01:40:44.271Z,2.88
2022-10-05T01:43:17.624Z,3.10
2022-10-05T01:45:51.055Z,3.22
2022-10-05T01:48:59.983Z,3.55
2022-10-05T01:51:46.124Z,3.13
2022-10-05T01:54:20.534Z,3.20
2022-10-05T01:59:49.679Z,2.92
2022-10-05T02:02:21.121Z,3.00
2022-10-05T02:05:01.942Z,2.95
2022-10-05T02:08:05.208Z,2.65
2022-10-05T02:10:42.301Z,3.35
2022-10-05T02:13:15.619Z,3.20
2022-10-05T02:18:23.847Z,3.42
2022-10-05T02:20:55.485Z,3.40
2022-10-05T02:23:31.184Z,3.10
2022-10-05T02:25:58.937Z,3.33
2022-10-05T02:28:51.556Z,2.67
2022-10-05T02:31:38.630Z,3.30
2022-10-05T02:34:31.434Z,2.90
2022-10-05T02:37:25.206Z,3.55
2022-10-05T02:39:59.114Z,3.13
2022-10-05T02:42:47.704Z,3.30
2022-10-05T02:45:15.193Z,3.28
2022-10-05T02:48:12.890Z,3.00
2022-10-05T02:50:48.617Z,3.35
2022-10-05T02:53:16.081Z,3.28
2022-10-05T02:56:03.051Z,3.08
2022-10-05T02:59:02.523Z,2.72
2022-10-05T03:01:47.858Z,3.70
2022-10-05T03:04:31.035Z,3.58
2022-10-05T03:07:04.668Z,3.35
2022-10-05T03:09:44.302Z,4.03
2022-10-05T03:12:22.724Z,3.47
2022-10-05T03:15:26.117Z,3.47
2022-10-05T03:18:20.143Z,3.13
2022-10-05T03:21:09.586Z,3.47
2022-10-05T03:24:28.564Z,3.30
2022-10-05T03:27:12.125Z,3.40
2022-10-05T03:32:39.597Z,3.13
2022-10-05T03:35:14.574Z,3.63
2022-10-05T03:38:05.456Z,3.60
2022-10-05T03:40:50.609Z,3.92
2022-10-05T03:43:54.363Z,3.20
2022-10-05T03:46:43.537Z,3.47
2022-10-05T03:49:23.474Z,3.35
2022-10-05T03:52:06.923Z,3.25
2022-10-05T03:57:22.540Z,3.40
2022-10-05T04:00:05.501Z,3.00
2022-10-05T04:03:00.687Z,2.92
2022-10-05T04:05:51.818Z,3.15
2022-10-05T04:08:38.668Z,3.33
2022-10-05T04:11:15.785Z,3.05
2022-10-05T04:13:52.821Z,3.22
2022-10-05T04:16:29.284Z,3.03
2022-10-05T04:19:10.947Z,3.47
2022-10-05T04:22:16.220Z,3.20
2022-10-05T04:24:52.906Z,3.20
2022-10-05T04:27:43.982Z,3.10
2022-10-05T04:30:16.783Z,2.92
2022-10-05T04:32:51.947Z,2.65
2022-10-05T04:35:41.041Z,2.75
2022-10-05T04:38:36.416Z,2.80
2022-10-05T04:41:32.006Z,3.20
2022-10-05T04:44:25.248Z,2.95
2022-10-05T04:47:05.244Z,3.03
2022-10-05T04:49:33.167Z,3.05
2022-10-05T04:52:38.041Z,3.33
2022-10-05T04:55:35.437Z,3.28
2022-10-05T04:58:31.234Z,2.92
2022-10-05T05:01:25.968Z,3.58
2022-10-05T05:04:35.948Z,2.83
2022-10-05T05:07:32.701Z,2.78
2022-10-05T05:10:34.819Z,3.08
2022-10-05T05:13:18.597Z,3.00
2022-10-05T05:16:21.182Z,2.63
2022-10-05T05:19:16.871Z,2.92
2022-10-05T05:22:09.632Z,2.40
2022-10-05T05:25:11.333Z,2.50
2022-10-05T05:27:56.867Z,2.60
2022-10-05T05:30:46.142Z,2.78
2022-10-05T05:33:27.364Z,2.67
2022-10-05T05:36:23.656Z,2.70
2022-10-05T05:39:22.441Z,2.97
2022-10-05T05:41:56.626Z,2.70
2022-10-05T05:44:26.756Z,2.90
2022-10-05T05:47:40.589Z,3.03
2022-10-05T05:50:36.811Z,2.92
2022-10-05T05:53:10.188Z,3.00
2022-10-05T05:55:46.150Z,3.15
2022-10-05T05:58:19.799Z,2.85
2022-10-05T06:01:04.293Z,2.88
2022-10-05T06:03:54.056Z,3.00
2022-10-05T06:06:27.158Z,2.78
2022-10-05T06:08:58.330Z,3.20
2022-10-05T06:12:07.832Z,2.70
2022-10-05T06:15:06.002Z,3.00
2022-10-05T06:17:39.144Z,2.75
2022-10-05T06:22:43.548Z,3.40
2022-10-05T06:25:17.111Z,2.87
2022-10-05T06:28:01.946Z,2.70
2022-10-05T06:30:56.482Z,2.72
2022-10-05T06:36:29.011Z,3.05
2022-10-05T06:39:30.952Z,2.85
2022-10-05T06:41:59.932Z,2.70
2022-10-05T06:45:05.601Z,2.70
2022-10-05T06:47:50.480Z,3.10
2022-10-05T06:51:09.227Z,3.00
2022-10-05T06:53:57.015Z,2.47
2022-10-05T06:56:40.541Z,2.70
2022-10-05T06:59:16.976Z,3.07
2022-10-05T07:01:59.665Z,2.80
2022-10-05T07:07:23.798Z,2.90
2022-10-05T07:10:07.262Z,2.70
2022-10-05T07:13:01.894Z,2.28
2022-10-05T07:15:55.233Z,2.70
2022-10-05T07:18:28.969Z,2.63
2022-10-05T07:20:59.292Z,2.63
2022-10-05T07:23:45.403Z,2.95
2022-10-05T07:26:37.492Z,3.08
2022-10-05T07:29:08.001Z,2.75
2022-10-05T07:31:45.898Z,2.70
2022-10-05T07:34:30.371Z,2.42
2022-10-05T07:37:55.486Z,2.70
2022-10-05T07:40:53.615Z,2.50
2022-10-05T07:43:40.241Z,2.60
2022-10-05T07:46:40.514Z,2.83
2022-10-05T07:49:24.388Z,2.80
2022-10-05T07:51:58.539Z,2.78
2022-10-05T07:54:53.088Z,2.67
2022-10-05T07:57:30.398Z,2.70
2022-10-05T08:00:07.196Z,2.45
2022-10-05T08:02:44.550Z,2.60
2022-10-05T08:05:30.295Z,2.67
2022-10-05T08:08:27.426Z,3.08
2022-10-05T08:11:48.878Z,2.90
2022-10-05T08:14:39.963Z,2.42
2022-10-05T08:17:25.512Z,2.83
2022-10-05T08:20:21.829Z,2.63
2022-10-05T08:23:10.812Z,2.83
2022-10-05T08:25:49.810Z,2.63
2022-10-05T08:28:25.714Z,2.78
2022-10-05T08:31:04.244Z,2.83
2022-10-05T08:33:40.964Z,2.42
2022-10-05T08:36:14.543Z,2.20
2022-10-05T08:38:42.611Z,2.38
2022-10-05T08:41:40.864Z,2.47
2022-10-05T08:44:30.271Z,2.30
2022-10-05T08:47:00.570Z,2.58
2022-10-05T08:50:01.028Z,2.13
2022-10-05T08:53:04.575Z,2.28
2022-10-05T08:55:35.143Z,2.20
2022-10-05T08:58:30.700Z,2.33
2022-10-05T09:01:08.370Z,2.13
2022-10-05T09:04:00.894Z,2.22
2022-10-05T09:07:09.625Z,2.75
2022-10-05T09:09:40.149Z,3.20
2022-10-05T09:12:35.302Z,3.30
2022-10-05T09:15:27.361Z,4.15
2022-10-05T09:18:31.793Z,4.45
2022-10-05T09:21:06.634Z,4.63
2022-10-05T09:23:43.266Z,4.18
2022-10-05T09:27:01.460Z,5.25
2022-10-05T09:29:53.261Z,4.53
2022-10-05T09:32:44.720Z,4.60
2022-10-05T09:35:50.103Z,4.32
2022-10-05T09:38:55.205Z,3.90
2022-10-05T09:41:22.895Z,4.15
2022-10-05T09:44:22.312Z,3.90
2022-10-05T09:46:52.782Z,4.20
2022-10-05T09:49:38.422Z,3.90
2022-10-05T09:52:27.642Z,4.28
2022-10-05T09:55:26.302Z,3.60
2022-10-05T09:58:04.194Z,3.78
2022-10-05T10:01:09.032Z,3.35
2022-10-05T10:04:16.929Z,3.40
2022-10-05T10:07:09.863Z,3.28
2022-10-05T10:10:08.350Z,3.33
2022-10-05T10:12:57.006Z,3.50
2022-10-05T10:15:36.835Z,3.20
2022-10-05T10:18:23.232Z,3.25
2022-10-05T10:21:33.173Z,3.03
2022-10-05T10:24:38.477Z,3.33
2022-10-05T10:27:36.948Z,3.30
2022-10-05T10:30:46.195Z,3.20
2022-10-05T10:33:44.777Z,3.60
2022-10-05T10:36:43.946Z,2.92
2022-10-05T10:39:20.268Z,3.38
2022-10-05T10:42:26.201Z,3.00
2022-10-05T10:45:38.274Z,3.42
2022-10-05T10:48:37.964Z,3.60
2022-10-05T10:51:17.331Z,3.53
2022-10-05T10:54:17.420Z,3.97
2022-10-05T10:57:04.102Z,3.38
2022-10-05T11:00:17.579Z,3.47
2022-10-05T11:03:30.021Z,3.30
2022-10-05T11:06:34.876Z,3.20
2022-10-05T11:09:14.546Z,3.33
2022-10-05T11:12:05.512Z,3.20
2022-10-05T11:15:02.487Z,2.97
2022-10-05T11:18:07.626Z,3.17
2022-10-05T11:20:59.996Z,2.80
2022-10-05T11:23:45.622Z,3.30
2022-10-05T11:26:32.579Z,2.83
2022-10-05T11:29:19.045Z,3.22
2022-10-05T11:31:58.004Z,3.03
2022-10-05T11:34:46.529Z,2.83
2022-10-05T11:37:37.669Z,2.60
2022-10-05T11:40:20.996Z,3.05
2022-10-05T11:43:12.859Z,2.60
2022-10-05T11:46:10.708Z,3.10
2022-10-05T11:48:48.274Z,2.60
2022-10-05T11:51:36.317Z,2.40
2022-10-05T11:54:09.974Z,2.35
2022-10-05T11:56:59.418Z,2.75
2022-10-05T11:59:34.548Z,2.78
2022-10-05T12:02:02.084Z,2.55
2022-10-05T12:05:18.822Z,3.10
2022-10-05T12:07:56.019Z,2.30
2022-10-05T12:10:45.366Z,2.40
2022-10-05T12:13:33.673Z,2.28
2022-10-05T12:16:32.703Z,2.65
2022-10-05T12:19:14.713Z,2.63
2022-10-05T12:21:56.633Z,2.30
2022-10-05T12:24:36.464Z,2.58
2022-10-05T12:27:12.217Z,2.30
2022-10-05T12:30:08.109Z,2.40
2022-10-05T12:33:02.553Z,2.30
2022-10-05T12:35:58.194Z,2.40
2022-10-05T12:38:48.703Z,2.33
2022-10-05T12:41:32.430Z,2.30
2022-10-05T12:44:35.471Z,2.50
2022-10-05T12:47:39.246Z,2.25
2022-10-05T12:50:22.992Z,2.55
2022-10-05T12:53:08.738Z,2.40
2022-10-05T12:56:16.139Z,2.20
2022-10-05T12:59:19.054Z,2.17
2022-10-05T13:02:04.255Z,2.40
2022-10-05T13:04:58.520Z,2.50
2022-10-05T13:07:50.949Z,2.15
2022-10-05T13:10:31.292Z,2.53
2022-10-05T13:13:21.364Z,2.38
2022-10-05T13:16:01.242Z,2.20
2022-10-05T13:18:51.789Z,2.15
2022-10-05T13:21:30.735Z,2.20
2022-10-05T13:24:38.109Z,2.10
2022-10-05T13:27:16.283Z,2.08
2022-10-05T13:29:54.504Z,2.20
2022-10-05T13:32:34.749Z,2.30
2022-10-05T13:35:25.922Z,2.10
2022-10-05T13:38:02.303Z,2.30
2022-10-05T13:40:45.958Z,2.10
2022-10-05T13:43:45.954Z,2.05
2022-10-05T13:46:38.360Z,2.20
2022-10-05T13:49:44.509Z,2.15
2022-10-05T13:52:34.693Z,2.30
2022-10-05T13:55:15.037Z,2.05
2022-10-05T13:57:53.356Z,1.83
2022-10-05T14:00:26.915Z,2.22
2022-10-05T14:02:57.353Z,2.03
2022-10-05T14:05:31.920Z,1.90
2022-10-05T14:08:02.296Z,2.38
2022-10-05T14:10:47.401Z,2.30
2022-10-05T14:13:23.887Z,2.40
2022-10-05T14:16:04.395Z,2.10
2022-10-05T14:18:36.512Z,2.55
2022-10-05T14:21:13.479Z,2.50
2022-10-05T14:23:41.261Z,2.40
2022-10-05T14:26:35.783Z,2.03
2022-10-05T14:29:16.131Z,2.20
2022-10-05T14:32:01.944Z,2.38
2022-10-05T14:34:34.777Z,2.17
2022-10-05T14:37:21.420Z,2.10
2022-10-05T14:39:51.951Z,2.10
2022-10-05T14:42:22.798Z,2.30
2022-10-05T14:45:13.375Z,1.95
2022-10-05T14:48:08.790Z,1.92
2022-10-05T14:50:52.797Z,2.35
2022-10-05T14:53:25.846Z,2.00
2022-10-05T14:56:21.958Z,1.98
2022-10-05T14:58:53.600Z,1.88
2022-10-05T15:01:28.272Z,2.13
2022-10-05T15:04:50.204Z,1.90
2022-10-05T15:07:41.016Z,1.98
2022-10-05T15:10:43.800Z,2.00
2022-10-05T15:13:32.241Z,2.00
2022-10-05T15:16:22.465Z,2.63
2022-10-05T15:19:16.305Z,2.78
2022-10-05T15:24:58.919Z,2.80
2022-10-05T15:27:42.343Z,3.05
2022-10-05T15:32:51.178Z,2.60
2022-10-05T15:35:27.942Z,2.47
2022-10-05T15:38:21.003Z,2.53
2022-10-05T15:41:12.056Z,3.20
2022-10-05T15:43:50.323Z,2.38
2022-10-05T15:46:31.864Z,2.70
2022-10-05T15:49:08.705Z,3.28
2022-10-05T15:52:08.821Z,2.75
2022-10-05T15:55:16.771Z,2.93
2022-10-05T15:57:50.514Z,2.63
2022-10-05T16:00:20.923Z,2.80
2022-10-05T16:03:12.846Z,2.63
2022-10-05T16:06:07.203Z,2.70
2022-10-05T16:08:53.133Z,2.80
2022-10-05T16:11:46.143Z,2.50
2022-10-05T16:14:32.704Z,2.45
2022-10-05T16:17:22.165Z,3.10
2022-10-05T16:20:30.794Z,2.58
2022-10-05T16:23:17.743Z,2.65
2022-10-05T16:25:54.417Z,2.85
2022-10-05T16:28:46.409Z,2.70
2022-10-05T16:31:17.752Z,2.67
2022-10-05T16:33:54.614Z,2.63
2022-10-05T16:36:49.052Z,2.33
2022-10-05T16:39:17.612Z,2.65
2022-10-05T16:42:12.986Z,2.78
2022-10-05T16:45:06.936Z,2.30
2022-10-05T16:47:50.723Z,2.55
2022-10-05T16:50:38.438Z,2.67
2022-10-05T16:53:52.403Z,2.75
2022-10-05T16:56:25.325Z,3.28
2022-10-05T16:59:30.245Z,2.88
2022-10-05T17:02:37.939Z,3.78
2022-10-05T17:05:44.806Z,3.40
2022-10-05T17:08:57.627Z,3.15
2022-10-05T17:11:56.257Z,3.15
2022-10-05T17:14:41.924Z,3.28
2022-10-05T17:17:32.653Z,3.60
2022-10-05T17:20:19.004Z,3.50
2022-10-05T17:22:55.679Z,3.25
2022-10-05T17:25:36.587Z,3.05
2022-10-05T17:28:57.466Z,3.28
2022-10-05T17:31:28.549Z,3.90
2022-10-05T17:34:18.046Z,3.20
2022-10-05T17:36:53.605Z,3.83
2022-10-05T17:39:23.250Z,3.45
2022-10-05T17:41:51.249Z,3.58
2022-10-05T17:44:26.447Z,3.50
2022-10-05T17:46:55.155Z,3.63
2022-10-05T17:49:37.961Z,3.58
2022-10-05T17:52:24.015Z,3.97
2022-10-05T17:55:19.751Z,4.00
2022-10-05T17:57:47.242Z,4.20
2022-10-05T18:00:40.825Z,4.05
2022-10-05T18:06:37.381Z,3.55
2022-10-05T18:09:23.278Z,4.07
2022-10-05T18:12:18.019Z,3.42
2022-10-05T18:15:06.890Z,3.25
2022-10-05T18:17:47.824Z,3.30
2022-10-05T18:20:21.068Z,3.22
2022-10-05T18:25:25.955Z,2.90
2022-10-05T18:28:31.642Z,2.65
2022-10-05T18:31:41.681Z,2.88
2022-10-05T18:34:26.420Z,2.70
2022-10-05T18:37:15.522Z,2.72
2022-10-05T18:40:27.942Z,2.38
2022-10-05T18:42:55.398Z,2.70
2022-10-05T18:45:22.868Z,2.40
2022-10-05T18:48:16.646Z,2.45
2022-10-05T18:53:28.341Z,2.65
2022-10-05T18:56:15.280Z,2.83
2022-10-05T18:58:57.030Z,2.78
2022-10-05T19:01:28.089Z,2.50
2022-10-05T19:04:27.645Z,2.47
2022-10-05T19:07:06.197Z,2.67
2022-10-05T19:09:48.643Z,2.92
2022-10-05T19:12:41.391Z,2.85
2022-10-05T19:15:34.626Z,2.78
2022-10-05T19:18:40.380Z,2.60
2022-10-05T19:21:34.499Z,3.10
2022-10-05T19:24:31.631Z,2.70
2022-10-05T19:27:27.480Z,2.83
2022-10-05T19:30:15.863Z,3.00
2022-10-05T19:33:11.147Z,2.70
2022-10-05T19:35:45.049Z,2.70
2022-10-05T19:38:29.200Z,2.75
2022-10-05T19:41:18.098Z,2.50
2022-10-05T19:43:57.661Z,2.50
2022-10-05T19:46:52.802Z,2.70
2022-10-05T19:49:49.231Z,3.33
2022-10-05T19:52:41.775Z,3.00
2022-10-05T19:55:15.826Z,2.75
2022-10-05T19:57:54.416Z,2.47
2022-10-05T20:00:27.949Z,2.30
2022-10-05T20:03:16.549Z,2.53
2022-10-05T20:05:48.067Z,2.40
2022-10-05T20:08:18.324Z,2.70
2022-10-05T20:11:03.949Z,2.60
2022-10-05T20:13:34.996Z,2.90
2022-10-05T20:16:31.682Z,2.50
2022-10-05T20:19:18.378Z,2.85
2022-10-05T20:21:47.347Z,2.70
2022-10-05T20:24:25.460Z,3.05
2022-10-05T20:27:16.507Z,3.20
2022-10-05T20:29:45.085Z,3.20
2022-10-05T20:32:15.200Z,3.13
2022-10-05T20:34:46.740Z,3.37
2022-10-05T20:37:16.966Z,3.25
2022-10-05T20:39:44.859Z,3.20
2022-10-05T20:42:12.481Z,3.33
2022-10-05T20:44:43.180Z,3.00
2022-10-05T20:47:10.919Z,2.92
2022-10-05T20:49:41.246Z,3.42
2022-10-05T20:52:10.873Z,3.40
2022-10-05T20:54:43.930Z,3.33
2022-10-05T20:57:11.485Z,3.42
2022-10-05T20:59:38.881Z,3.28
2022-10-05T21:02:06.769Z,3.67
2022-10-05T21:04:41.698Z,3.83
2022-10-05T21:07:11.584Z,3.90
2022-10-05T21:09:40.951Z,3.75
2022-10-05T21:12:11.419Z,3.45
2022-10-05T21:14:41.062Z,3.70
2022-10-05T21:22:07.393Z,4.47
2022-10-05T21:24:36.732Z,4.05
2022-10-05T21:27:05.209Z,4.55
2022-10-05T21:29:34.396Z,4.05
2022-10-05T21:32:03.373Z,4.68
2022-10-05T21:34:32.955Z,4.88
2022-10-05T21:37:00.580Z,4.53
2022-10-05T21:39:27.884Z,4.45
2022-10-05T21:41:55.275Z,4.45
2022-10-05T21:44:22.784Z,4.18
2022-10-05T21:46:53.191Z,4.63
2022-10-05T21:49:20.747Z,3.72
2022-10-05T21:51:55.092Z,3.50
2022-10-05T21:54:24.216Z,3.47
2022-10-05T21:56:58.631Z,3.88
2022-10-05T21:59:32.477Z,3.72
2022-10-05T22:01:59.833Z,3.50
2022-10-05T22:04:27.593Z,3.63
2022-10-05T22:06:55.939Z,3.50
2022-10-05T22:09:23.595Z,2.88
2022-10-05T22:11:53.547Z,2.95
2022-10-05T22:14:23.948Z,3.40
2022-10-05T22:16:53.322Z,3.08
2022-10-05T22:19:23.322Z,3.17
2022-10-05T22:21:50.890Z,3.13
2022-10-05T22:24:20.528Z,3.20
2022-10-05T22:26:51.521Z,3.72
2022-10-05T22:29:20.364Z,3.28
2022-10-05T22:31:48.949Z,3.10
2022-10-05T22:34:17.922Z,3.70
2022-10-05T22:36:45.907Z,3.60
2022-10-05T22:39:17.043Z,3.33
2022-10-05T22:41:48.983Z,3.20
2022-10-05T22:44:16.987Z,3.33
2022-10-05T22:46:44.447Z,3.03
2022-10-05T22:49:13.161Z,3.25
2022-10-05T22:51:40.631Z,3.42
2022-10-05T22:54:08.109Z,3.25
2022-10-05T22:56:35.511Z,3.92
2022-10-05T22:59:03.160Z,3.72
2022-10-05T23:01:32.860Z,3.47
2022-10-05T23:04:00.302Z,3.60
2022-10-05T23:06:28.760Z,4.07
2022-10-05T23:08:58.672Z,3.70
2022-10-05T23:11:27.979Z,3.70
2022-10-05T23:13:58.067Z,3.83
2022-10-05T23:16:28.349Z,3.97
2022-10-05T23:18:56.798Z,3.75
2022-10-05T23:21:25.820Z,4.07
2022-10-05T23:23:53.608Z,3.80
2022-10-05T23:26:26.328Z,4.10
2022-10-05T23:28:57.164Z,3.95
2022-10-05T23:31:31.163Z,3.60
2022-10-05T23:33:58.652Z,3.75
2022-10-05T23:36:31.362Z,3.53
2022-10-05T23:39:01.339Z,3.78
2022-10-05T23:41:29.062Z,3.45
2022-10-05T23:43:56.418Z,3.13
2022-10-05T23:46:25.110Z,4.03
2022-10-05T23:48:53.242Z,3.33
2022-10-05T23:51:23.072Z,3.10
2022-10-05T23:53:50.511Z,3.50
2022-10-05T23:56:20.331Z,3.65
2022-10-05T23:58:47.799Z,3.17
